Time;durP1;ratioP1;P1;durP2;ratioP2;P2;SDS_P1;SDS_P2;PMS_P1;PMS_P2;Temp;Humidity;BMP_temperature;BMP_pressure;BME280_temperature;BME280_humidity;BME280_pressure;Samples;Min_cycle;Max_cycle;Signal;HPM_P1;HPM_P2
2020/12/19 00:01:42;;;;;;;27.48;17.95;;;;;;;3.49;73.78;100421.78;1738872;80;21151;-36
2020/12/19 00:04:10;;;;;;;30.43;17.50;;;;;;;3.46;73.82;100430.40;1791169;78;21570;-36
2020/12/19 00:06:44;;;;;;;27.07;17.20;;;;;;;3.46;73.78;100429.06;1787099;79;22356;-36
2020/12/19 00:09:12;;;;;;;27.35;18.15;;;;;;;3.51;73.75;100434.36;1787484;79;21150;-36
2020/12/19 00:11:44;;;;;;;26.97;17.37;;;;;;;3.53;73.83;100434.89;1778671;79;21092;-36
2020/12/19 00:14:13;;;;;;;30.52;17.85;;;;;;;3.52;73.81;100431.94;1774076;79;21206;-36
2020/12/19 00:16:41;;;;;;;30.30;18.40;;;;;;;3.49;73.83;100436.52;1791367;79;21629;-36
2020/12/19 00:19:09;;;;;;;29.00;18.12;;;;;;;3.45;73.92;100438.98;1789467;79;21418;-36
2020/12/19 00:21:38;;;;;;;28.75;18.25;;;;;;;3.50;73.92;100436.24;1812873;79;21138;-36
2020/12/19 00:24:06;;;;;;;29.92;18.00;;;;;;;3.62;73.72;100443.89;1804486;79;21108;-36
2020/12/19 00:26:39;;;;;;;32.70;19.05;;;;;;;3.67;73.63;100442.48;1775139;79;21399;-36
2020/12/19 00:29:10;;;;;;;32.80;18.90;;;;;;;3.70;73.56;100448.61;1765123;79;21143;-37
2020/12/19 00:31:38;;;;;;;32.53;20.08;;;;;;;3.69;73.41;100443.52;1769772;81;21377;-36
2020/12/19 00:34:07;;;;;;;32.20;19.30;;;;;;;3.67;73.50;100445.17;1759533;81;21148;-36
2020/12/19 00:36:35;;;;;;;29.50;18.60;;;;;;;3.67;73.47;100442.48;1742344;81;21621;-36
2020/12/19 00:39:06;;;;;;;30.68;19.95;;;;;;;3.68;73.39;100436.02;1756608;80;21001;-36
2020/12/19 00:42:50;;;;;;;29.25;18.60;;;;;;;3.83;73.16;100437.70;1820858;77;22735;-36
2020/12/19 00:45:19;;;;;;;35.93;19.63;;;;;;;3.73;73.36;100438.64;1785618;79;21529;-36
2020/12/19 00:47:47;;;;;;;35.70;20.45;;;;;;;3.73;73.31;100438.64;1781808;78;21426;-36
2020/12/19 00:50:17;;;;;;;32.48;19.15;;;;;;;3.70;73.30;100441.91;1787902;78;21033;-36
2020/12/19 00:52:45;;;;;;;34.20;19.65;;;;;;;3.67;73.40;100433.11;1791942;78;21027;-36
2020/12/19 00:55:13;;;;;;;30.08;18.65;;;;;;;3.70;73.26;100431.17;1813698;78;21019;-36
2020/12/19 00:57:42;;;;;;;33.05;19.90;;;;;;;3.73;73.24;100437.30;1791552;78;20976;-36
2020/12/19 01:00:10;;;;;;;32.45;19.77;;;;;;;3.75;73.28;100437.02;1794756;78;21625;-36
2020/12/19 01:02:38;;;;;;;30.90;19.12;;;;;;;3.75;73.30;100433.80;1802775;78;20968;-36
2020/12/19 01:05:10;;;;;;;34.98;19.95;;;;;;;3.74;73.29;100432.19;1815454;79;21058;-36
2020/12/19 01:07:39;;;;;;;29.85;18.10;;;;;;;3.71;73.33;100430.64;1811440;78;21146;-36
2020/12/19 01:10:09;;;;;;;28.52;18.70;;;;;;;3.70;73.29;100433.06;1770892;79;21150;-36
2020/12/19 01:12:39;;;;;;;29.37;18.12;;;;;;;3.71;73.21;100439.48;1807665;78;20941;-36
2020/12/19 01:15:08;;;;;;;33.25;19.35;;;;;;;3.65;73.43;100436.60;1805303;79;21178;-36
2020/12/19 01:17:39;;;;;;;34.90;18.90;;;;;;;3.62;73.59;100439.87;1792157;79;21098;-36
2020/12/19 01:20:08;;;;;;;34.27;19.52;;;;;;;3.58;73.74;100440.19;1807492;79;21156;-36
2020/12/19 01:22:36;;;;;;;34.18;18.92;;;;;;;3.54;73.90;100441.83;1749149;82;21167;-36
2020/12/19 01:25:04;;;;;;;30.23;18.90;;;;;;;3.54;73.89;100439.14;1779473;80;21461;-36
2020/12/19 01:27:32;;;;;;;32.85;19.35;;;;;;;3.60;73.81;100438.55;1739416;81;21440;-36
2020/12/19 01:30:01;;;;;;;33.15;19.73;;;;;;;3.63;73.87;100440.10;1738990;80;21183;-36
2020/12/19 01:32:31;;;;;;;31.80;19.67;;;;;;;3.64;73.89;100440.36;1736505;80;21198;-36
2020/12/19 01:34:59;;;;;;;33.35;19.77;;;;;;;3.66;73.85;100442.77;1748997;80;21130;-36
2020/12/19 01:37:28;;;;;;;34.85;18.70;;;;;;;3.67;73.80;100437.13;1727896;80;21199;-36
2020/12/19 01:39:56;;;;;;;30.60;19.15;;;;;;;3.73;73.61;100441.86;1741260;81;20997;-36
2020/12/19 01:42:25;;;;;;;32.17;18.00;;;;;;;3.77;73.44;100446.39;1727302;81;22194;-36
2020/12/19 01:44:53;;;;;;;32.33;20.23;;;;;;;3.76;73.43;100454.72;1781998;79;21162;-36
2020/12/19 01:47:22;;;;;;;34.00;19.92;;;;;;;3.73;73.55;100449.36;1759491;80;21142;-36
2020/12/19 01:49:50;;;;;;;33.83;20.00;;;;;;;3.74;73.58;100450.16;1781380;80;21457;-36
2020/12/19 01:52:20;;;;;;;34.33;19.37;;;;;;;3.71;73.50;100451.55;1780993;80;21135;-36
2020/12/19 01:54:49;;;;;;;36.33;20.08;;;;;;;3.72;73.51;100453.16;1781587;78;21517;-36
2020/12/19 01:57:18;;;;;;;31.10;18.67;;;;;;;3.79;73.38;100448.77;1776216;78;21105;-36
2020/12/19 01:59:47;;;;;;;32.13;19.98;;;;;;;3.80;73.37;100449.83;1767061;80;21136;-36
2020/12/19 02:02:16;;;;;;;35.83;20.72;;;;;;;3.49;73.36;100403.81;1780632;79;21509;-36
2020/12/19 02:04:44;;;;;;;30.10;19.25;;;;;;;3.79;73.34;100444.73;1785900;78;21044;-36
2020/12/19 02:07:13;;;;;;;34.50;19.30;;;;;;;3.75;73.35;100451.23;1808126;78;21158;-36
2020/12/19 02:09:41;;;;;;;31.40;18.52;;;;;;;3.75;73.35;100447.75;1793842;79;21082;-36
2020/12/19 02:12:10;;;;;;;30.08;18.90;;;;;;;3.79;73.23;100443.40;1780703;79;21170;-36
2020/12/19 02:14:39;;;;;;;29.87;18.87;;;;;;;3.81;73.31;100443.38;1780569;80;21150;-36
2020/12/19 02:17:12;;;;;;;31.93;19.73;;;;;;;3.83;73.27;100445.22;1780859;80;21065;-36
2020/12/19 02:19:42;;;;;;;34.95;20.80;;;;;;;3.78;73.30;100447.96;1788168;79;21012;-36
2020/12/19 02:22:10;;;;;;;32.38;19.27;;;;;;;3.71;73.44;100443.51;1812918;79;21016;-36
2020/12/19 02:24:39;;;;;;;30.65;19.45;;;;;;;3.65;73.63;100447.87;1801947;79;21094;-36
2020/12/19 02:27:07;;;;;;;34.75;20.12;;;;;;;3.64;73.74;100448.41;1780639;78;21488;-36
2020/12/19 02:29:35;;;;;;;30.00;18.05;;;;;;;3.68;73.71;100447.31;1759512;79;21162;-36
2020/12/19 02:32:04;;;;;;;37.95;21.65;;;;;;;3.67;73.85;100446.52;1784742;79;21166;-36
2020/12/19 02:34:32;;;;;;;39.42;20.40;;;;;;;3.66;73.95;100452.95;1786930;79;21114;-36
2020/12/19 02:37:01;;;;;;;39.60;19.92;;;;;;;3.65;74.06;100446.53;1780047;80;21232;-36
2020/12/19 02:39:29;;;;;;;36.53;20.35;;;;;;;3.59;74.06;100444.45;1780961;79;21280;-36
2020/12/19 02:41:58;;;;;;;24.00;14.80;;;;;;;3.59;74.23;100444.98;1789268;79;21210;-36
2020/12/19 02:44:27;;;;;;;36.88;20.30;;;;;;;3.65;74.16;100440.63;1803564;79;21143;-36
2020/12/19 02:46:56;;;;;;;25.97;15.40;;;;;;;3.67;74.14;100438.47;1737753;82;21163;-36
2020/12/19 02:49:25;;;;;;;35.28;20.70;;;;;;;3.65;74.18;100435.80;1763618;80;21114;-36
2020/12/19 02:51:53;;;;;;;41.63;21.60;;;;;;;3.63;74.26;100437.42;1744822;80;21335;-36
2020/12/19 02:54:22;;;;;;;37.03;21.62;;;;;;;3.30;74.34;100394.92;1748616;80;21595;-36
2020/12/19 02:56:50;;;;;;;36.90;21.50;;;;;;;3.71;74.22;100450.21;1732164;82;21190;-36
2020/12/19 02:59:19;;;;;;;43.13;21.10;;;;;;;3.82;74.04;100451.69;1756203;80;21595;-36
2020/12/19 03:01:47;;;;;;;40.45;22.35;;;;;;;3.90;73.92;100446.22;1759877;80;21446;-36
2020/12/19 03:04:16;;;;;;;43.23;21.85;;;;;;;3.90;73.77;100456.41;1726632;81;21186;-36
2020/12/19 03:06:44;;;;;;;39.73;21.93;;;;;;;3.86;73.83;100447.34;1723968;81;21206;-36
2020/12/19 03:09:12;;;;;;;36.48;20.35;;;;;;;3.84;73.81;100449.50;1733702;82;21024;-36
2020/12/19 03:11:41;;;;;;;39.03;20.95;;;;;;;3.83;73.83;100447.89;1739931;81;21043;-36
2020/12/19 03:14:09;;;;;;;33.53;18.65;;;;;;;3.90;73.73;100436.28;1755623;81;21161;-36
2020/12/19 03:16:38;;;;;;;37.42;20.20;;;;;;;3.92;73.73;100443.48;1744406;81;21185;-36
2020/12/19 03:19:06;;;;;;;41.02;21.02;;;;;;;3.89;73.77;100440.05;1738840;81;21167;-36
2020/12/19 03:21:35;;;;;;;45.52;21.37;;;;;;;3.83;73.83;100447.89;1718161;82;21563;-36
2020/12/19 03:24:05;;;;;;;38.73;21.48;;;;;;;3.76;74.02;100446.13;1738252;81;21052;-36
2020/12/19 03:26:36;;;;;;;36.75;20.65;;;;;;;3.74;74.07;100436.76;1745887;82;21154;-36
2020/12/19 03:29:04;;;;;;;40.17;21.57;;;;;;;3.75;74.17;100435.14;1720807;81;21386;-36
2020/12/19 03:31:32;;;;;;;45.03;21.15;;;;;;;3.77;74.28;100430.30;1720146;81;21774;-36
2020/12/19 03:34:01;;;;;;;44.33;21.40;;;;;;;3.75;74.32;100437.82;1730923;81;21020;-36
2020/12/19 03:36:31;;;;;;;46.13;19.65;;;;;;;3.70;74.37;100440.56;1744901;81;21770;-37
2020/12/19 03:38:59;;;;;;;38.53;20.17;;;;;;;3.65;74.60;100436.60;1726054;82;21170;-37
2020/12/19 03:41:27;;;;;;;38.50;20.92;;;;;;;3.64;74.70;100440.36;1719607;81;21609;-38
2020/12/19 03:43:56;;;;;;;39.85;21.17;;;;;;;3.73;74.62;100440.52;1736090;82;21213;-37
2020/12/19 03:46:24;;;;;;;42.80;21.57;;;;;;;3.79;74.60;100442.86;1766030;80;21142;-37
2020/12/19 03:48:53;;;;;;;48.00;20.88;;;;;;;3.79;74.50;100440.72;1772544;80;21036;-37
2020/12/19 03:51:21;;;;;;;45.95;20.23;;;;;;;3.75;74.51;100445.06;1746413;80;21574;-37
2020/12/19 03:53:50;;;;;;;40.30;20.45;;;;;;;3.70;74.61;100453.97;1750392;80;21252;-37
2020/12/19 03:56:18;;;;;;;39.98;21.73;;;;;;;3.71;74.65;100452.09;1749900;80;21012;-37
2020/12/19 03:58:46;;;;;;;40.75;20.88;;;;;;;3.78;74.52;100451.98;1745940;80;21150;-37
2020/12/19 04:01:18;;;;;;;42.73;21.93;;;;;;;3.82;74.47;100450.89;1746405;80;21047;-37
2020/12/19 04:03:46;;;;;;;42.88;21.97;;;;;;;3.82;74.52;100457.05;1748841;79;21175;-37
2020/12/19 04:06:14;;;;;;;42.83;20.48;;;;;;;3.86;74.54;100450.56;1667558;86;21263;-37
2020/12/19 04:08:42;;;;;;;44.77;21.50;;;;;;;3.88;74.36;100455.08;1745133;80;21094;-37
2020/12/19 04:11:11;;;;;;;40.17;21.45;;;;;;;3.92;74.31;100457.47;1748899;81;21167;-37
2020/12/19 04:13:39;;;;;;;40.85;20.90;;;;;;;4.02;74.08;100457.30;1770994;80;21172;-37
2020/12/19 04:16:07;;;;;;;44.88;22.70;;;;;;;4.08;73.88;100458.04;1747381;80;21011;-37
2020/12/19 04:18:37;;;;;;;;;;;;;;;4.08;73.95;100462.06;1777191;80;21361;-37
2020/12/19 04:21:07;;;;;;;45.08;22.73;;;;;;;4.09;73.89;100456.95;1768682;80;20266;-37
2020/12/19 04:23:35;;;;;;;48.45;22.22;;;;;;;4.04;74.03;100467.76;1740993;80;21529;-37
2020/12/19 04:26:03;;;;;;;41.70;21.50;;;;;;;4.05;73.83;100457.28;1741078;80;21664;-37
2020/12/19 04:28:32;;;;;;;43.63;21.60;;;;;;;4.10;73.76;100459.91;1767144;79;21162;-37
2020/12/19 04:31:00;;;;;;;45.08;21.60;;;;;;;4.21;73.56;100465.39;1768752;80;21207;-37
2020/12/19 04:33:28;;;;;;;46.25;23.35;;;;;;;4.28;73.34;100463.13;1761999;80;21123;-37
2020/12/19 04:35:56;;;;;;;51.13;22.50;;;;;;;4.27;73.30;100458.84;1750525;80;21119;-37
2020/12/19 04:38:24;;;;;;;48.05;23.25;;;;;;;4.25;73.19;100462.38;1749915;80;21004;-37
2020/12/19 04:40:53;;;;;;;48.90;22.80;;;;;;;4.20;73.28;100461.91;1760217;79;21127;-37
2020/12/19 04:43:21;;;;;;;45.90;23.02;;;;;;;4.19;73.32;100448.77;1776680;79;21378;-37
2020/12/19 04:45:49;;;;;;;44.60;22.80;;;;;;;4.21;73.29;100459.45;1792251;79;21067;-37
2020/12/19 04:48:18;;;;;;;43.13;23.47;;;;;;;4.31;73.09;100455.82;1800509;79;21146;-37
2020/12/19 04:50:47;;;;;;;46.63;22.98;;;;;;;4.34;72.96;100455.27;1804260;79;21589;-37
2020/12/19 04:53:19;;;;;;;47.73;23.10;;;;;;;4.36;72.97;100453.06;1802862;79;21146;-37
2020/12/19 04:55:48;;;;;;;50.55;23.30;;;;;;;4.38;72.82;100454.39;1777471;79;21371;-37
2020/12/19 04:58:19;;;;;;;47.45;22.98;;;;;;;4.38;72.75;100458.95;1790346;79;21570;-37
2020/12/19 05:00:47;;;;;;;;;;;;;;;4.35;72.58;100454.17;1776008;79;20981;-37
2020/12/19 05:03:15;;;;;;;40.00;21.87;;;;;;;4.33;72.45;100450.97;1777269;79;20288;-37
2020/12/19 05:05:44;;;;;;;42.83;21.70;;;;;;;4.29;72.49;100453.45;1777636;79;21179;-37
2020/12/19 05:08:12;;;;;;;47.48;22.45;;;;;;;4.25;72.50;100455.66;1737412;81;22112;-37
2020/12/19 05:10:44;;;;;;;42.03;22.27;;;;;;;4.19;72.52;100455.48;1757057;80;21150;-37
2020/12/19 05:13:12;;;;;;;47.30;22.55;;;;;;;4.13;72.57;100453.94;1791378;79;21158;-37
2020/12/19 05:15:40;;;;;;;45.23;22.82;;;;;;;4.09;72.62;100452.93;1714883;82;21153;-37
2020/12/19 05:18:09;;;;;;;42.40;21.40;;;;;;;4.03;72.58;100455.42;1748669;81;21139;-37
2020/12/19 05:20:38;;;;;;;42.88;21.97;;;;;;;4.00;72.47;100459.50;1738274;82;21379;-37
2020/12/19 05:23:09;;;;;;;39.40;20.23;;;;;;;3.97;72.32;100453.92;1740909;80;21053;-37
2020/12/19 05:25:38;;;;;;;38.40;20.05;;;;;;;3.97;72.39;100464.65;1723488;81;21183;-37
2020/12/19 05:28:08;;;;;;;35.35;18.77;;;;;;;3.93;72.37;100463.86;1740723;80;21148;-37
2020/12/19 05:30:36;;;;;;;35.60;19.62;;;;;;;3.88;72.35;100467.95;1683085;82;21146;-37
2020/12/19 05:33:05;;;;;;;37.73;19.27;;;;;;;3.79;72.49;100466.20;1788700;78;21370;-37
2020/12/19 05:35:35;;;;;;;40.38;20.48;;;;;;;3.70;72.76;100475.42;1783328;79;21179;-37
2020/12/19 05:38:05;;;;;;;39.90;20.95;;;;;;;3.66;72.98;100478.97;1796688;79;21147;-37
2020/12/19 05:40:34;;;;;;;40.85;21.23;;;;;;;3.72;73.07;100479.98;1781920;79;21445;-37
2020/12/19 05:43:02;;;;;;;40.12;21.80;;;;;;;3.72;73.09;100475.15;1776295;79;21154;-37
2020/12/19 05:45:30;;;;;;;38.40;20.75;;;;;;;3.68;73.30;100474.91;1697484;83;21211;-37
2020/12/19 05:47:59;;;;;;;39.48;20.75;;;;;;;3.68;73.41;100478.92;1769714;81;21099;-37
2020/12/19 05:50:27;;;;;;;36.15;20.37;;;;;;;3.66;73.35;100475.75;1765016;80;22141;-37
2020/12/19 05:52:55;;;;;;;33.88;19.73;;;;;;;3.69;73.31;100480.53;1695794;84;21202;-37
2020/12/19 05:55:24;;;;;;;39.45;21.07;;;;;;;3.75;73.17;100488.78;1769794;81;21147;-37
2020/12/19 05:57:52;;;;;;;37.23;20.02;;;;;;;3.80;73.12;100493.28;1747011;81;21610;-37
2020/12/19 06:00:20;;;;;;;34.08;19.65;;;;;;;3.76;73.12;100495.75;1764574;81;21996;-37
2020/12/19 06:02:49;;;;;;;42.35;22.40;;;;;;;3.76;73.18;100497.63;1762626;80;21025;-37
2020/12/19 06:05:18;;;;;;;35.90;19.30;;;;;;;3.72;73.19;100505.45;1733657;81;21139;-37
2020/12/19 06:07:50;;;;;;;33.92;20.10;;;;;;;3.75;73.17;100510.23;1766678;80;21133;-37
2020/12/19 06:10:20;;;;;;;33.88;19.92;;;;;;;3.84;73.04;100515.76;1760965;81;21276;-37
2020/12/19 06:12:56;;;;;;;35.78;20.70;;;;;;;3.86;72.94;100517.09;1696088;84;21162;-37
2020/12/19 06:15:53;;;;;;;35.65;19.70;;;;;;;3.81;72.95;100531.90;1757695;80;21115;-37
2020/12/19 06:18:39;;;;;;;39.67;21.48;;;;;;;3.70;73.27;100530.94;1768667;80;21040;-37
2020/12/19 06:21:09;;;;;;;36.98;21.10;;;;;;;3.58;73.67;100530.55;1696322;83;21166;-37
2020/12/19 06:23:38;;;;;;;34.45;19.95;;;;;;;3.54;73.95;100540.22;1765391;81;21370;-37
2020/12/19 06:26:07;;;;;;;35.40;21.02;;;;;;;3.57;74.01;100539.13;1766561;81;21450;-37
2020/12/19 06:28:45;;;;;;;37.90;21.15;;;;;;;3.56;74.09;100541.55;1768171;81;21207;-37
2020/12/19 06:31:19;;;;;;;41.20;21.93;;;;;;;3.50;74.36;100544.02;1769449;81;21056;-37
2020/12/19 06:33:53;;;;;;;39.78;22.22;;;;;;;3.49;74.54;100547.77;1695778;84;21158;-37
2020/12/19 06:36:24;;;;;;;41.28;23.15;;;;;;;3.47;74.59;100558.00;1768605;81;21265;-37
2020/12/19 06:39:10;;;;;;;37.58;21.93;;;;;;;3.49;74.60;100559.30;1764483;81;20991;-37
2020/12/19 06:41:58;;;;;;;35.05;19.75;;;;;;;3.61;74.38;100557.59;1768230;81;21036;-37
2020/12/19 06:44:29;;;;;;;37.78;20.75;;;;;;;3.62;74.53;100556.52;1772661;79;21123;-37
2020/12/19 06:47:00;;;;;;;37.30;20.75;;;;;;;3.65;74.45;100557.81;1792477;79;21157;-37
2020/12/19 06:49:33;;;;;;;36.45;20.80;;;;;;;3.64;74.41;100561.57;1790576;79;21377;-37
2020/12/19 06:52:13;;;;;;;38.17;21.05;;;;;;;3.64;74.36;100554.33;1785897;79;21186;-37
2020/12/19 06:54:47;;;;;;;36.13;20.17;;;;;;;3.76;74.25;100557.44;1773533;79;21139;-37
2020/12/19 06:57:30;;;;;;;37.53;21.27;;;;;;;3.82;74.16;100557.64;1792045;79;22225;-37
2020/12/19 07:00:23;;;;;;;38.67;20.70;;;;;;;3.87;74.12;100555.44;1753667;80;21128;-37
2020/12/19 07:02:57;;;;;;;38.42;21.37;;;;;;;3.88;74.06;100553.80;1740730;81;21207;-37
2020/12/19 07:05:31;;;;;;;37.73;20.57;;;;;;;3.83;74.11;100552.52;1726117;81;21203;-37
2020/12/19 07:08:19;;;;;;;38.83;20.55;;;;;;;3.88;74.16;100551.11;1812104;79;21032;-37
2020/12/19 07:10:49;;;;;;;34.03;19.73;;;;;;;4.00;73.98;100552.60;1801527;79;21151;-37
2020/12/19 07:13:18;;;;;;;37.33;20.00;;;;;;;4.01;73.95;100547.50;1801909;79;21605;-37
2020/12/19 07:15:50;;;;;;;34.55;19.85;;;;;;;4.02;74.10;100550.44;1808332;79;21358;-37
2020/12/19 07:18:34;;;;;;;40.10;20.95;;;;;;;4.02;74.17;100552.55;1795085;79;21399;-37
2020/12/19 07:21:10;;;;;;;38.17;19.52;;;;;;;4.05;74.23;100549.86;1772651;81;21053;-37
2020/12/19 07:23:39;;;;;;;35.92;19.05;;;;;;;4.07;74.26;100544.98;1773480;80;21159;-37
2020/12/19 07:26:09;;;;;;;37.58;18.90;;;;;;;4.15;74.26;100549.20;1737986;82;21232;-37
2020/12/19 07:28:38;;;;;;;39.35;19.67;;;;;;;4.18;74.14;100550.49;1737960;82;21307;-37
2020/12/19 07:31:08;;;;;;;43.20;21.07;;;;;;;4.16;74.25;100551.34;1729962;83;21081;-37
2020/12/19 07:33:36;;;;;;;34.50;19.27;;;;;;;4.13;74.26;100549.21;1729885;83;21195;-37
2020/12/19 07:36:05;;;;;;;34.95;19.42;;;;;;;4.15;74.32;100543.83;1729852;83;21064;-37
2020/12/19 07:38:33;;;;;;;30.20;17.93;;;;;;;4.24;74.32;100550.16;1738456;82;21653;-37
2020/12/19 07:41:03;;;;;;;30.08;17.48;;;;;;;4.32;74.20;100552.19;1729995;82;21207;-37
2020/12/19 07:43:32;;;;;;;;;;;;;;;4.33;74.05;100548.42;1731955;81;21193;-38
2020/12/19 07:46:00;;;;;;;35.23;17.92;;;;;;;4.31;74.02;100548.44;1724169;81;20228;-37
2020/12/19 07:48:29;;;;;;;28.32;15.88;;;;;;;4.21;74.36;100549.94;1792442;79;21110;-37
2020/12/19 07:51:06;;;;;;;29.15;17.32;;;;;;;4.32;74.17;100559.44;1794731;79;21178;-37
2020/12/19 07:53:44;;;;;;;30.80;17.32;;;;;;;4.37;74.00;100544.61;1796384;79;21143;-38
2020/12/19 07:56:13;;;;;;;27.22;16.93;;;;;;;4.49;73.78;100563.78;1798681;79;21147;-37
2020/12/19 07:58:42;;;;;;;28.17;16.95;;;;;;;4.50;73.57;100569.42;1801105;78;21182;-37
2020/12/19 08:01:10;;;;;;;28.70;16.90;;;;;;;4.47;73.51;100564.61;1793513;79;21113;-37
2020/12/19 08:03:38;;;;;;;27.30;16.17;;;;;;;4.44;73.54;100567.88;1757084;81;21111;-37
2020/12/19 08:06:06;;;;;;;27.13;16.00;;;;;;;4.46;73.36;100568.38;1794700;79;21424;-37
2020/12/19 08:08:35;;;;;;;24.92;16.05;;;;;;;4.50;73.37;100568.08;1795812;79;21185;-38
2020/12/19 08:11:03;;;;;;;29.05;16.10;;;;;;;4.53;73.34;100570.71;1794310;79;21141;-38
2020/12/19 08:13:33;;;;;;;29.92;17.50;;;;;;;4.51;73.24;100572.33;1756439;81;21162;-37
2020/12/19 08:16:02;;;;;;;31.42;18.15;;;;;;;4.46;73.33;100569.72;1794920;79;21659;-37
2020/12/19 08:18:30;;;;;;;32.03;19.12;;;;;;;4.43;73.54;100570.30;1757136;81;21174;-37
2020/12/19 08:20:59;;;;;;;32.30;18.92;;;;;;;4.47;73.67;100569.98;1794674;80;21165;-37
2020/12/19 08:23:28;;;;;;;28.98;17.30;;;;;;;4.57;73.48;100575.21;1757193;81;21162;-37
2020/12/19 08:25:56;;;;;;;29.60;18.00;;;;;;;4.57;73.32;100568.50;1757272;80;21202;-37
2020/12/19 08:28:24;;;;;;;33.42;19.27;;;;;;;4.52;73.42;100566.42;1807410;79;21163;-37
2020/12/19 08:30:53;;;;;;;31.40;18.42;;;;;;;4.48;73.46;100566.21;1811837;79;22275;-37
2020/12/19 08:33:21;;;;;;;32.05;18.30;;;;;;;4.43;73.61;100564.94;1795225;78;21189;-37
2020/12/19 08:35:50;;;;;;;31.82;17.45;;;;;;;4.46;73.70;100563.00;1764944;78;21119;-37
2020/12/19 08:38:22;;;;;;;30.15;17.87;;;;;;;4.55;73.30;100562.61;1783256;78;21577;-37
2020/12/19 08:40:52;;;;;;;33.18;19.60;;;;;;;4.55;73.25;100560.49;1783009;78;21158;-38
2020/12/19 08:43:35;;;;;;;33.33;19.48;;;;;;;4.53;73.40;100559.43;1794279;78;21380;-37
2020/12/19 08:46:09;;;;;;;35.03;19.95;;;;;;;4.52;73.40;100560.51;1791149;79;21672;-37
2020/12/19 08:48:40;;;;;;;32.85;18.95;;;;;;;4.49;73.49;100554.39;1793545;80;21051;-37
2020/12/19 08:51:14;;;;;;;33.98;20.45;;;;;;;4.53;73.48;100550.57;1794654;80;21003;-37
2020/12/19 08:53:42;;;;;;;31.20;18.87;;;;;;;4.62;73.44;100544.25;1794910;80;21102;-37
2020/12/19 08:56:14;;;;;;;35.40;19.75;;;;;;;4.67;73.35;100542.84;1794227;80;21205;-37
2020/12/19 08:58:44;;;;;;;34.43;18.95;;;;;;;4.71;73.32;100535.80;1811418;78;21182;-37
2020/12/19 09:01:16;;;;;;;34.10;19.65;;;;;;;4.75;73.27;100530.08;1756885;81;21055;-37
2020/12/19 09:03:44;;;;;;;35.13;19.77;;;;;;;4.79;73.12;100528.41;1794086;79;21003;-37
2020/12/19 09:06:14;;;;;;;35.43;19.32;;;;;;;4.85;72.84;100529.67;1794920;80;21150;-37
2020/12/19 09:08:47;;;;;;;31.68;18.82;;;;;;;4.89;72.58;100526.11;1794664;80;21364;-38
2020/12/19 09:11:27;;;;;;;35.58;19.87;;;;;;;4.83;72.51;100523.27;1772624;79;20981;-37
2020/12/19 09:14:12;;;;;;;36.58;21.05;;;;;;;4.75;72.71;100523.37;1794750;79;21133;-37
2020/12/19 09:16:48;;;;;;;35.40;20.45;;;;;;;4.75;72.98;100526.05;1797979;79;21146;-37
2020/12/19 09:19:18;;;;;;;33.30;20.00;;;;;;;4.76;73.07;100522.28;1798060;79;21146;-37
2020/12/19 09:22:00;;;;;;;31.48;19.17;;;;;;;4.83;72.90;100527.84;1797530;79;22227;-37
2020/12/19 09:24:30;;;;;;;31.45;19.35;;;;;;;4.93;72.79;100528.48;1795021;79;21017;-38
2020/12/19 09:26:59;;;;;;;25.90;14.45;;;;;;;4.96;72.66;100525.74;1795277;79;21133;-37
2020/12/19 09:29:27;;;;;;;36.77;20.30;;;;;;;4.97;72.60;100530.03;1794953;80;21181;-37
2020/12/19 09:31:57;;;;;;;42.95;21.25;;;;;;;4.97;72.47;100526.00;1756771;81;21154;-37
2020/12/19 09:34:26;;;;;;;37.65;21.12;;;;;;;4.91;72.52;100521.25;1746406;81;21376;-37
2020/12/19 09:36:54;;;;;;;40.78;21.77;;;;;;;4.90;72.53;100524.22;1794955;79;21648;-37
2020/12/19 09:39:23;;;;;;;35.15;20.62;;;;;;;4.88;72.56;100517.81;1794988;79;21110;-37
2020/12/19 09:41:51;;;;;;;38.23;21.02;;;;;;;4.81;72.73;100518.72;1796312;79;21098;-37
2020/12/19 09:44:19;;;;;;;36.90;22.22;;;;;;;4.73;72.87;100508.10;1756678;81;21147;-37
2020/12/19 09:46:47;;;;;;;39.85;20.57;;;;;;;4.64;73.23;100512.55;1713077;83;21631;-37
2020/12/19 09:49:15;;;;;;;36.55;19.80;;;;;;;4.58;73.41;100515.05;1763887;81;21638;-37
2020/12/19 09:51:44;;;;;;;38.17;21.62;;;;;;;4.54;73.66;100516.72;1756920;80;21016;-37
2020/12/19 09:54:15;;;;;;;40.25;21.75;;;;;;;4.56;73.72;100511.84;1757228;81;21061;-37
2020/12/19 09:56:45;;;;;;;38.02;21.33;;;;;;;4.52;73.88;100515.40;1752885;81;21099;-38
2020/12/19 09:59:13;;;;;;;40.48;21.27;;;;;;;4.49;74.09;100511.97;1762992;80;21207;-38
2020/12/19 10:01:42;;;;;;;37.90;20.92;;;;;;;4.44;74.18;100514.18;1716112;82;21202;-37
2020/12/19 10:04:10;;;;;;;35.63;20.15;;;;;;;4.44;74.12;100511.50;1757352;81;21010;-37
2020/12/19 10:06:38;;;;;;;34.95;19.50;;;;;;;4.49;74.14;100518.14;1758475;81;21067;-37
2020/12/19 10:09:07;;;;;;;40.08;22.07;;;;;;;4.49;74.20;100516.80;1758190;81;21874;-37
2020/12/19 10:11:38;;;;;;;36.20;20.05;;;;;;;4.51;74.35;100519.17;1759222;81;23590;-37
2020/12/19 10:14:06;;;;;;;37.98;20.57;;;;;;;4.51;74.34;100517.28;1752432;81;21038;-37
2020/12/19 10:16:35;;;;;;;38.97;21.07;;;;;;;4.49;74.28;100517.34;1756988;81;21063;-37
2020/12/19 10:19:03;;;;;;;39.00;20.50;;;;;;;4.49;74.32;100516.80;1763507;81;21391;-37
2020/12/19 10:21:31;;;;;;;36.28;21.12;;;;;;;4.55;74.16;100509.47;1763704;81;21165;-37
2020/12/19 10:24:01;;;;;;;36.28;21.62;;;;;;;4.59;74.16;100517.99;1759890;81;21558;-37
2020/12/19 10:26:29;;;;;;;34.50;20.70;;;;;;;4.57;74.21;100513.98;1687759;85;21013;-37
2020/12/19 10:28:58;;;;;;;38.20;21.35;;;;;;;4.51;74.28;100517.28;1759355;81;21162;-37
2020/12/19 10:31:28;;;;;;;37.45;21.27;;;;;;;4.48;74.36;100515.19;1761564;81;21103;-37
2020/12/19 10:33:56;;;;;;;36.73;20.45;;;;;;;4.50;74.31;100517.05;1763182;81;21153;-37
2020/12/19 10:36:25;;;;;;;36.48;18.55;;;;;;;4.52;74.33;100514.86;1759182;81;23446;-37
2020/12/19 10:38:53;;;;;;;39.00;21.05;;;;;;;4.48;74.53;100515.19;1759787;81;21017;-37
2020/12/19 10:41:21;;;;;;;41.53;23.60;;;;;;;4.42;74.66;100510.97;1762413;81;21167;-37
2020/12/19 10:43:51;;;;;;;;;;;;;;;4.32;74.96;100511.92;1762153;81;21201;-37
2020/12/19 10:46:25;;;;;;;38.75;20.17;;;;;;;4.33;74.99;100512.72;1762918;80;20275;-37
2020/12/19 10:48:53;;;;;;;35.83;19.57;;;;;;;4.32;74.98;100516.48;1717218;82;22268;-37
2020/12/19 10:51:29;;;;;;;39.60;20.08;;;;;;;4.29;75.01;100513.84;1717302;83;21186;-37
2020/12/19 10:53:57;;;;;;;43.15;20.50;;;;;;;4.24;75.22;100511.77;1717344;83;21001;-37
2020/12/19 10:56:25;;;;;;;36.45;17.92;;;;;;;4.19;75.41;100509.16;1715718;83;21429;-37
2020/12/19 10:58:54;;;;;;;38.45;19.23;;;;;;;4.24;75.38;100509.09;1760976;81;21173;-37
2020/12/19 11:01:22;;;;;;;35.40;18.85;;;;;;;4.31;75.22;100509.52;1763862;81;21247;-37
2020/12/19 11:03:52;;;;;;;40.58;19.82;;;;;;;4.33;75.14;100508.15;1760005;81;21112;-37
2020/12/19 11:06:22;;;;;;;41.50;21.10;;;;;;;4.33;75.21;100501.98;1761105;81;21554;-37
2020/12/19 11:08:51;;;;;;;37.15;19.82;;;;;;;4.29;75.25;100508.48;1717344;83;21170;-37
2020/12/19 11:11:22;;;;;;;36.77;20.15;;;;;;;4.27;75.27;100503.12;1702048;83;21467;-37
2020/12/19 11:13:50;;;;;;;32.17;17.95;;;;;;;4.27;75.33;100511.19;1716749;83;21474;-37
2020/12/19 11:16:28;;;;;;;33.92;19.23;;;;;;;4.34;75.18;100515.66;1757509;81;21188;-37
2020/12/19 11:18:59;;;;;;;35.30;19.17;;;;;;;4.31;75.33;100511.66;1759172;81;20985;-37
2020/12/19 11:21:28;;;;;;;35.80;18.73;;;;;;;4.30;75.46;100514.65;1688469;84;21155;-37
2020/12/19 11:23:57;;;;;;;34.53;19.73;;;;;;;4.29;75.52;100515.73;1733646;82;21143;-37
2020/12/19 11:26:26;;;;;;;31.55;17.35;;;;;;;4.31;75.53;100517.02;1733725;82;21492;-37
2020/12/19 11:28:54;;;;;;;44.88;23.73;;;;;;;4.36;75.27;100512.93;1760892;81;21204;-37
2020/12/19 11:31:26;;;;;;;48.75;24.77;;;;;;;4.35;75.28;100515.92;1760887;81;21123;-37
2020/12/19 11:33:55;;;;;;;49.15;24.18;;;;;;;4.32;75.38;100515.94;1722176;83;21186;-37